Time;durP1;ratioP1;P1;durP2;ratioP2;P2;SDS_P1;SDS_P2;PMS_P1;PMS_P2;Temp;Humidity;BMP_temperature;BMP_pressure;BME280_temperature;BME280_humidity;BME280_pressure;Samples;Min_cycle;Max_cycle;Signal;HPM_P1;HPM_P2
2022/04/23 00:00:35;;;;;;;4.35;4.22;;;9.10;99.90;;;;;;4196053;28;20070;-49
2022/04/23 00:02:39;;;;;;;4.00;3.90;;;9.00;99.90;;;;;;4196173;28;20411;-47
2022/04/23 00:04:41;;;;;;;3.65;3.55;;;9.00;99.90;;;;;;4195898;28;20047;-47
2022/04/23 00:06:44;;;;;;;4.55;4.35;;;9.00;99.90;;;;;;4197874;28;20029;-48
2022/04/23 00:08:46;;;;;;;5.18;4.97;;;8.90;99.90;;;;;;4208638;28;20064;-48
2022/04/23 00:10:48;;;;;;;4.65;4.28;;;8.90;99.90;;;;;;4195733;28;20036;-48
2022/04/23 00:12:54;;;;;;;4.65;4.55;;;8.90;99.90;;;;;;4206039;28;20041;-48
2022/04/23 00:14:56;;;;;;;5.30;5.07;;;8.90;99.90;;;;;;4194406;28;20078;-49
2022/04/23 00:17:00;;;;;;;5.15;4.95;;;8.80;99.90;;;;;;4195815;28;20124;-50
2022/04/23 00:19:02;;;;;;;5.22;5.03;;;8.70;99.90;;;;;;4197395;28;20040;-48
2022/04/23 00:21:04;;;;;;;5.60;5.40;;;8.70;99.90;;;;;;4195888;28;20049;-50
2022/04/23 00:23:10;;;;;;;5.75;5.65;;;8.70;99.90;;;;;;4207122;28;20147;-50
2022/04/23 00:25:12;;;;;;;4.80;4.70;;;8.70;99.90;;;;;;4202672;28;20040;-50
2022/04/23 00:27:15;;;;;;;5.00;4.90;;;8.60;99.90;;;;;;4195632;28;20089;-48
2022/04/23 00:29:17;;;;;;;4.45;4.25;;;8.60;99.90;;;;;;4195313;28;20057;-50
2022/04/23 00:31:19;;;;;;;4.80;4.70;;;8.60;99.90;;;;;;4195270;28;20071;-50
2022/04/23 00:33:29;;;;;;;4.90;4.80;;;8.60;99.90;;;;;;4195438;28;20049;-48
2022/04/23 00:35:31;;;;;;;4.80;4.70;;;8.50;99.90;;;;;;4195363;28;20052;-47
2022/04/23 00:37:34;;;;;;;4.97;4.60;;;8.50;99.90;;;;;;4195387;28;20043;-47
2022/04/23 00:39:36;;;;;;;5.35;5.25;;;8.40;99.90;;;;;;4195573;28;20063;-47
2022/04/23 00:41:48;;;;;;;4.97;4.88;;;8.30;99.90;;;;;;4195371;28;20041;-48
2022/04/23 00:43:50;;;;;;;5.50;5.40;;;8.30;99.90;;;;;;4209428;28;20442;-50
2022/04/23 00:45:53;;;;;;;4.45;4.35;;;8.40;99.90;;;;;;4198356;28;20040;-48
2022/04/23 00:47:55;;;;;;;;;;;8.40;99.90;;;;;;4194391;28;20070;-48
2022/04/23 00:49:57;;;;;;;5.77;5.47;;;8.30;99.90;;;;;;4196099;28;19920;-49
2022/04/23 00:51:59;;;;;;;5.20;5.00;;;8.30;99.90;;;;;;4194973;28;20602;-46
2022/04/23 00:54:04;;;;;;;6.15;6.05;;;8.30;99.90;;;;;;4195144;28;20048;-48
2022/04/23 00:56:06;;;;;;;5.95;5.85;;;8.30;99.90;;;;;;4209936;28;20036;-49
2022/04/23 00:58:08;;;;;;;7.28;5.55;;;8.30;99.90;;;;;;4205331;28;20040;-48
2022/04/23 01:00:12;;;;;;;4.90;4.80;;;8.30;99.90;;;;;;4198170;28;20387;-47
2022/04/23 01:02:15;;;;;;;4.57;4.47;;;8.30;99.90;;;;;;4205461;28;20071;-47
2022/04/23 01:04:17;;;;;;;4.85;4.75;;;8.30;99.90;;;;;;4206726;28;20067;-49
2022/04/23 01:06:20;;;;;;;4.80;4.47;;;8.30;99.90;;;;;;4194533;28;20462;-47
2022/04/23 01:08:25;;;;;;;4.85;4.55;;;8.30;99.90;;;;;;4204254;28;20046;-47
2022/04/23 01:10:29;;;;;;;4.03;3.92;;;8.30;99.90;;;;;;4194780;28;20408;-48
2022/04/23 01:12:33;;;;;;;3.83;3.72;;;8.30;99.90;;;;;;4205887;28;20055;-48
2022/04/23 01:14:55;;;;;;;4.07;3.88;;;8.30;99.90;;;;;;4208661;28;20101;-48
2022/04/23 01:16:57;;;;;;;3.10;3.10;;;8.30;99.90;;;;;;4194712;28;20455;-47
2022/04/23 01:18:59;;;;;;;4.32;4.22;;;8.20;99.90;;;;;;4227683;28;20112;-46
2022/04/23 01:21:02;;;;;;;2.85;2.75;;;8.10;99.90;;;;;;4210314;28;20044;-50
2022/04/23 01:23:05;;;;;;;3.63;3.33;;;8.10;99.90;;;;;;4198473;28;20036;-48
2022/04/23 01:25:12;;;;;;;4.55;3.92;;;8.10;99.90;;;;;;4194571;28;20040;-47
2022/04/23 01:27:16;;;;;;;3.58;3.47;;;8.10;99.90;;;;;;4194571;28;20040;-49
2022/04/23 01:29:19;;;;;;;5.15;5.05;;;8.10;99.90;;;;;;4194258;28;20048;-49
2022/04/23 01:31:23;;;;;;;4.45;4.35;;;8.10;99.90;;;;;;4194514;28;20416;-48
2022/04/23 01:33:30;;;;;;;3.42;3.40;;;8.10;99.90;;;;;;4194529;28;20068;-48
2022/04/23 01:35:32;;;;;;;4.43;4.32;;;8.10;99.90;;;;;;4194478;28;20040;-48
2022/04/23 01:37:35;;;;;;;4.75;4.60;;;8.10;99.90;;;;;;4194461;28;20499;-51
2022/04/23 01:39:37;;;;;;;4.00;3.65;;;8.00;99.90;;;;;;4194575;28;20049;-50
2022/04/23 01:41:39;;;;;;;4.10;4.00;;;8.00;99.90;;;;;;4194279;28;20424;-48
2022/04/23 01:43:41;;;;;;;5.40;5.30;;;8.10;99.90;;;;;;4206126;28;20067;-50
2022/04/23 01:45:44;;;;;;;6.65;6.40;;;8.20;99.90;;;;;;4205490;28;20041;-50
2022/04/23 01:47:46;;;;;;;4.90;4.80;;;8.20;99.90;;;;;;4194568;28;20126;-50
2022/04/23 01:49:48;;;;;;;5.22;4.97;;;8.20;99.90;;;;;;4202149;28;20057;-48
2022/04/23 01:51:51;;;;;;;4.68;4.47;;;8.20;99.90;;;;;;4214199;28;20162;-47
2022/04/23 01:53:54;;;;;;;4.85;4.75;;;8.20;99.90;;;;;;4194180;28;20105;-47
2022/04/23 01:55:56;;;;;;;4.68;4.47;;;8.10;99.90;;;;;;4192692;28;20138;-48
2022/04/23 01:57:59;;;;;;;4.65;4.45;;;8.20;99.90;;;;;;4195982;28;20106;-50
2022/04/23 02:00:05;;;;;;;5.28;5.18;;;8.20;99.90;;;;;;4197060;28;20506;-48
2022/04/23 02:02:08;;;;;;;5.78;5.50;;;8.20;99.90;;;;;;4206455;28;20040;-49
2022/04/23 02:04:10;;;;;;;5.28;5.07;;;8.20;99.90;;;;;;4201064;28;20064;-51
2022/04/23 02:06:13;;;;;;;5.53;5.00;;;8.20;99.90;;;;;;4193960;28;20496;-51
2022/04/23 02:08:16;;;;;;;5.05;4.95;;;8.20;99.90;;;;;;4199757;28;20048;-50
2022/04/23 02:10:19;;;;;;;5.55;5.28;;;8.20;99.90;;;;;;4194020;28;20415;-49
2022/04/23 02:12:21;;;;;;;4.85;4.75;;;8.20;99.90;;;;;;4202821;28;20037;-49
2022/04/23 02:14:23;;;;;;;4.78;4.65;;;8.20;99.90;;;;;;4193973;28;20529;-50
2022/04/23 02:16:26;;;;;;;4.80;4.47;;;8.20;99.90;;;;;;4193900;28;20257;-48
2022/04/23 02:18:28;;;;;;;4.30;4.20;;;8.20;99.90;;;;;;4217669;28;20036;-50
2022/04/23 02:20:31;;;;;;;3.88;3.88;;;8.20;99.90;;;;;;4200556;28;20421;-49
2022/04/23 02:22:34;;;;;;;2.08;2.08;;;8.20;99.90;;;;;;4193748;28;20115;-48
2022/04/23 02:24:37;;;;;;;;;;;8.10;99.90;;;;;;4194128;28;20511;-50
2022/04/23 02:26:39;;;;;;;2.88;2.88;;;8.10;99.90;;;;;;4193698;28;19921;-48
2022/04/23 02:28:41;;;;;;;2.60;2.50;;;8.10;99.90;;;;;;4193382;28;20059;-48
2022/04/23 02:30:43;;;;;;;3.15;3.15;;;8.00;99.90;;;;;;4193743;28;20044;-47
2022/04/23 02:32:47;;;;;;;2.65;2.65;;;8.00;99.90;;;;;;4193059;28;20060;-50
2022/04/23 02:34:49;;;;;;;3.75;3.05;;;7.90;99.90;;;;;;4193576;28;20045;-50
2022/04/23 02:36:52;;;;;;;4.47;4.03;;;7.90;99.90;;;;;;4193400;28;20033;-48
2022/04/23 02:38:54;;;;;;;4.72;4.57;;;8.00;99.90;;;;;;4193501;28;20040;-48
2022/04/23 02:40:56;;;;;;;6.90;6.55;;;8.10;99.90;;;;;;4192656;28;20040;-48
2022/04/23 02:42:58;;;;;;;6.38;6.00;;;8.20;99.90;;;;;;4193311;28;20658;-48
2022/04/23 02:45:03;;;;;;;5.78;5.55;;;8.20;99.90;;;;;;4193500;28;20044;-49
2022/04/23 02:47:05;;;;;;;5.57;5.47;;;8.20;99.90;;;;;;4193649;28;20083;-50
2022/04/23 02:49:07;;;;;;;;;;;8.20;99.90;;;;;;4193835;28;20048;-48
2022/04/23 02:51:15;;;;;;;5.60;5.45;;;8.10;99.90;;;;;;4223411;28;20156;-48
2022/04/23 02:53:22;;;;;;;5.80;5.40;;;8.10;99.90;;;;;;4193385;28;20442;-51
2022/04/23 02:55:26;;;;;;;7.22;6.20;;;8.10;99.90;;;;;;4210074;28;20040;-48
2022/04/23 02:57:28;;;;;;;5.55;5.25;;;8.10;99.90;;;;;;4193304;28;20048;-48
2022/04/23 02:59:30;;;;;;;5.65;5.22;;;8.20;99.90;;;;;;4204702;28;20046;-48
2022/04/23 03:01:36;;;;;;;6.28;5.97;;;8.20;99.90;;;;;;4201366;28;20198;-48
2022/04/23 03:03:43;;;;;;;5.10;5.00;;;8.20;99.90;;;;;;4193397;28;20033;-51
2022/04/23 03:05:45;;;;;;;5.70;5.60;;;8.20;99.90;;;;;;4193209;28;20090;-48
2022/04/23 03:07:48;;;;;;;5.60;5.50;;;8.30;99.90;;;;;;4196163;28;20224;-51
2022/04/23 03:09:50;;;;;;;6.15;6.00;;;8.30;99.90;;;;;;4193392;28;20036;-51
2022/04/23 03:11:52;;;;;;;5.88;5.55;;;8.30;99.90;;;;;;4201650;28;20040;-51
2022/04/23 03:13:55;;;;;;;4.57;4.47;;;8.30;99.90;;;;;;4196829;28;20037;-51
2022/04/23 03:15:57;;;;;;;5.15;5.05;;;8.30;99.90;;;;;;4196850;28;20048;-47
2022/04/23 03:18:08;;;;;;;5.60;5.35;;;8.30;99.90;;;;;;4198865;28;20044;-50
2022/04/23 03:20:12;;;;;;;6.57;6.13;;;8.30;99.90;;;;;;4197154;28;20033;-50
2022/04/23 03:22:20;;;;;;;5.65;5.55;;;8.30;99.90;;;;;;4196717;28;20037;-50
2022/04/23 03:24:23;;;;;;;4.95;4.85;;;8.30;99.90;;;;;;4196552;28;20612;-48
2022/04/23 03:26:28;;;;;;;6.38;6.07;;;8.30;99.90;;;;;;4196632;28;20037;-51
2022/04/23 03:28:31;;;;;;;4.97;4.63;;;8.30;99.90;;;;;;4195884;28;20470;-50
2022/04/23 03:30:33;;;;;;;4.57;4.47;;;8.30;99.90;;;;;;4196566;28;20044;-50
2022/04/23 03:32:36;;;;;;;6.50;6.30;;;8.30;99.90;;;;;;4196546;28;20404;-51
2022/04/23 03:34:40;;;;;;;5.25;5.15;;;8.30;99.90;;;;;;4196411;28;20044;-49
2022/04/23 03:36:42;;;;;;;4.93;4.82;;;8.30;99.90;;;;;;4196028;28;20040;-48
2022/04/23 03:38:44;;;;;;;6.32;6.18;;;8.30;99.90;;;;;;4197721;28;20499;-50
2022/04/23 03:40:53;;;;;;;6.93;6.70;;;8.30;99.90;;;;;;4196354;28;20055;-50
2022/04/23 03:42:55;;;;;;;5.93;5.63;;;8.30;99.90;;;;;;4196084;28;20416;-50
2022/04/23 03:44:57;;;;;;;6.50;6.40;;;8.30;99.90;;;;;;4213268;28;20051;-49
2022/04/23 03:47:01;;;;;;;6.43;5.85;;;8.20;99.90;;;;;;4196107;28;20109;-50
2022/04/23 03:49:07;;;;;;;5.75;5.45;;;8.20;99.90;;;;;;4195975;28;20044;-51
2022/04/23 03:51:12;;;;;;;5.22;5.13;;;8.20;99.90;;;;;;4222555;28;20043;-50
2022/04/23 03:53:14;;;;;;;7.82;7.30;;;8.30;99.90;;;;;;4196216;28;20045;-50
2022/04/23 03:55:16;;;;;;;7.10;6.80;;;8.30;99.90;;;;;;4196090;28;20029;-48
2022/04/23 03:57:18;;;;;;;7.45;7.20;;;8.30;99.90;;;;;;4195938;28;20431;-49
2022/04/23 03:59:21;;;;;;;7.72;7.47;;;8.30;99.90;;;;;;4195826;28;20039;-48
2022/04/23 04:01:24;;;;;;;7.60;7.00;;;8.40;99.90;;;;;;4195775;28;20114;-47
2022/04/23 04:03:27;;;;;;;68.82;12.05;;;8.40;99.90;;;;;;4196059;28;20044;-49
2022/04/23 04:05:31;;;;;;;42.47;12.20;;;8.40;99.90;;;;;;4195721;28;20075;-51
2022/04/23 04:07:33;;;;;;;37.10;11.85;;;8.50;99.90;;;;;;4197833;28;20555;-48
2022/04/23 04:09:35;;;;;;;11.20;10.40;;;8.50;99.90;;;;;;4195802;28;20036;-48
2022/04/23 04:14:15;;;;;;;11.63;10.68;;;8.50;99.90;;;;;;4175516;28;20107;-49
2022/04/23 04:16:18;;;;;;;10.60;10.00;;;8.60;99.90;;;;;;4162766;28;20065;-51
2022/04/23 04:18:21;;;;;;;11.25;10.32;;;8.60;99.90;;;;;;4177349;28;20190;-48
2022/04/23 04:20:23;;;;;;;11.15;10.45;;;8.60;99.90;;;;;;4176081;28;20622;-49
2022/04/23 04:22:26;;;;;;;10.40;9.93;;;8.60;99.90;;;;;;4164589;28;20053;-48
2022/04/23 04:24:28;;;;;;;10.73;10.15;;;8.60;99.90;;;;;;4161459;28;20693;-52
2022/04/23 04:26:39;;;;;;;8.68;8.27;;;8.60;99.90;;;;;;4170361;28;20052;-49
2022/04/23 04:28:41;;;;;;;9.77;9.30;;;8.60;99.90;;;;;;4171911;28;20048;-50
2022/04/23 04:33:04;;;;;;;7.75;7.55;;;8.60;99.90;;;;;;4166639;28;20094;-48
2022/04/23 04:35:07;;;;;;;7.03;6.60;;;8.60;99.90;;;;;;4167650;28;20499;-50
2022/04/23 04:37:11;;;;;;;8.98;8.50;;;8.60;99.90;;;;;;4176552;28;20041;-49
2022/04/23 04:39:17;;;;;;;7.72;7.32;;;8.60;99.90;;;;;;4176517;28;20045;-51
2022/04/23 04:41:20;;;;;;;7.03;6.68;;;8.70;99.90;;;;;;4160518;28;20584;-51
2022/04/23 04:43:22;;;;;;;8.35;8.07;;;8.70;99.90;;;;;;4164771;28;20041;-51
2022/04/23 04:45:24;;;;;;;;;;;8.60;99.90;;;;;;4173776;28;20593;-49
2022/04/23 04:47:26;;;;;;;7.82;7.35;;;8.60;99.90;;;;;;4180197;28;19920;-50
2022/04/23 04:49:28;;;;;;;8.63;8.13;;;8.70;99.90;;;;;;4204523;28;20055;-49
2022/04/23 04:51:31;;;;;;;5.50;5.30;;;8.70;99.90;;;;;;4197520;28;20411;-50
2022/04/23 04:53:33;;;;;;;6.40;6.30;;;8.70;99.90;;;;;;4195152;28;20086;-52
2022/04/23 04:55:36;;;;;;;5.63;5.38;;;8.70;99.90;;;;;;4195264;28;20037;-50
2022/04/23 04:57:38;;;;;;;4.97;4.88;;;8.70;99.90;;;;;;4194944;28;20583;-49
2022/04/23 04:59:42;;;;;;;4.80;4.70;;;8.70;99.90;;;;;;4195519;28;20032;-48
2022/04/23 05:01:48;;;;;;;5.70;5.60;;;8.70;99.90;;;;;;4194952;28;20044;-51
2022/04/23 05:03:51;;;;;;;5.55;5.35;;;8.70;99.90;;;;;;4194849;28;20048;-49
2022/04/23 05:05:54;;;;;;;6.03;5.75;;;8.80;99.90;;;;;;4194961;28;20150;-51
2022/04/23 05:07:56;;;;;;;5.95;5.85;;;8.80;99.90;;;;;;4209990;28;20046;-50
2022/04/23 05:10:00;;;;;;;6.15;5.95;;;8.80;99.90;;;;;;4209216;28;20036;-51
2022/04/23 05:12:03;;;;;;;5.13;5.03;;;8.80;99.90;;;;;;4203964;28;20048;-52
2022/04/23 05:14:08;;;;;;;6.07;5.53;;;8.80;99.90;;;;;;4209099;28;20046;-52
2022/04/23 05:16:11;;;;;;;5.55;5.35;;;8.80;99.90;;;;;;4194487;28;20123;-51
2022/04/23 05:18:13;;;;;;;4.80;4.70;;;8.80;99.90;;;;;;4214790;28;20558;-51
2022/04/23 05:20:15;;;;;;;6.28;6.18;;;8.80;99.90;;;;;;4210286;28;20089;-51
2022/04/23 05:22:17;;;;;;;5.68;5.47;;;8.80;99.90;;;;;;4198478;28;20086;-48
2022/04/23 05:24:19;;;;;;;5.10;5.00;;;8.90;99.90;;;;;;4194850;28;20123;-50
2022/04/23 05:26:27;;;;;;;5.25;5.15;;;8.90;99.90;;;;;;4193562;28;20428;-48
2022/04/23 05:28:34;;;;;;;6.90;6.40;;;8.90;99.90;;;;;;4194383;28;20078;-49
2022/04/23 05:30:40;;;;;;;6.25;6.05;;;8.90;99.90;;;;;;4194655;28;20515;-48
2022/04/23 05:32:42;;;;;;;7.45;7.05;;;8.80;99.90;;;;;;4198319;28;20372;-49
2022/04/23 05:34:48;;;;;;;11.15;10.40;;;8.90;99.90;;;;;;4203887;28;20033;-50
2022/04/23 05:36:50;;;;;;;8.85;8.45;;;8.90;99.90;;;;;;4194654;28;20033;-51
2022/04/23 05:38:54;;;;;;;6.45;6.35;;;9.00;99.90;;;;;;4194697;28;20038;-51
2022/04/23 05:40:56;;;;;;;8.27;8.02;;;8.90;99.90;;;;;;4194587;28;20040;-49
2022/04/23 05:42:58;;;;;;;7.13;7.03;;;9.00;99.90;;;;;;4196307;28;20037;-50
2022/04/23 05:45:01;;;;;;;6.68;6.47;;;8.90;99.90;;;;;;4194448;28;20048;-49
2022/04/23 05:47:03;;;;;;;7.50;7.10;;;9.00;99.90;;;;;;4194926;28;20048;-52
2022/04/23 05:49:05;;;;;;;;;;;9.00;99.90;;;;;;4198807;28;20385;-50
2022/04/23 05:51:07;;;;;;;6.53;6.38;;;9.00;99.90;;;;;;4203022;28;19924;-50
2022/04/23 05:53:11;;;;;;;6.28;6.10;;;9.00;99.90;;;;;;4207897;28;20130;-51
2022/04/23 05:55:16;;;;;;;5.68;5.38;;;9.00;99.90;;;;;;4194288;28;20036;-51
2022/04/23 05:57:18;;;;;;;5.60;5.40;;;9.10;99.90;;;;;;4201230;28;20051;-50
2022/04/23 05:59:20;;;;;;;5.47;5.30;;;9.00;99.90;;;;;;4199237;28;20565;-50
2022/04/23 06:01:22;;;;;;;6.00;5.90;;;9.10;99.90;;;;;;4201076;28;20093;-50
2022/04/23 06:03:25;;;;;;;5.20;5.10;;;9.10;99.90;;;;;;4198956;28;20466;-48
2022/04/23 06:05:27;;;;;;;5.32;5.22;;;9.10;99.90;;;;;;4193914;28;20044;-49
2022/04/23 06:07:29;;;;;;;6.13;5.28;;;9.20;99.90;;;;;;4201371;28;20096;-50
2022/04/23 06:09:31;;;;;;;5.57;5.18;;;9.20;99.90;;;;;;4219010;28;20082;-49
2022/04/23 06:11:33;;;;;;;7.00;6.78;;;9.20;99.90;;;;;;4204174;28;20099;-48
2022/04/23 06:13:36;;;;;;;6.50;6.22;;;9.20;99.90;;;;;;4192349;28;20535;-51
2022/04/23 06:15:38;;;;;;;7.00;6.90;;;9.30;99.90;;;;;;4194055;28;20135;-50
2022/04/23 06:17:40;;;;;;;7.47;7.13;;;9.40;99.90;;;;;;4204249;28;20441;-50
2022/04/23 06:19:43;;;;;;;6.45;6.10;;;9.50;99.90;;;;;;4199208;28;20124;-49
2022/04/23 06:21:45;;;;;;;;;;;9.70;99.90;;;;;;4194336;28;20466;-48
2022/04/23 06:23:47;;;;;;;5.30;4.97;;;9.70;99.90;;;;;;4193476;28;20015;-50
2022/04/23 06:25:49;;;;;;;5.82;5.53;;;9.60;99.90;;;;;;4193663;28;20047;-49
2022/04/23 06:27:52;;;;;;;4.97;4.78;;;9.60;99.90;;;;;;4195238;28;20070;-47
2022/04/23 06:29:54;;;;;;;5.10;5.00;;;9.70;99.90;;;;;;4197310;28;20047;-47
2022/04/23 06:31:56;;;;;;;5.05;4.82;;;9.70;99.90;;;;;;4200213;28;20695;-48
2022/04/23 06:33:59;;;;;;;4.50;4.40;;;9.80;99.90;;;;;;4198678;28;20047;-47
2022/04/23 06:36:01;;;;;;;4.50;4.20;;;9.80;99.90;;;;;;4191318;28;20043;-47
2022/04/23 06:38:06;;;;;;;5.20;5.00;;;9.90;99.90;;;;;;4194669;28;20068;-47
2022/04/23 06:40:13;;;;;;;4.95;4.85;;;10.10;99.90;;;;;;4210757;28;20036;-48
2022/04/23 06:42:18;;;;;;;4.40;4.30;;;10.10;99.90;;;;;;4211655;28;20044;-49
2022/04/23 06:44:20;;;;;;;4.20;4.10;;;10.00;99.90;;;;;;4209932;28;20135;-49
2022/04/23 06:46:22;;;;;;;4.50;4.40;;;10.10;99.90;;;;;;4192813;28;20804;-48
2022/04/23 06:48:25;;;;;;;3.95;3.80;;;10.30;99.90;;;;;;4192243;28;20036;-50
2022/04/23 06:50:27;;;;;;;;;;;10.30;99.90;;;;;;4212484;28;20035;-49
2022/04/23 06:52:29;;;;;;;3.47;3.28;;;10.40;99.90;;;;;;4193674;28;19979;-50
2022/04/23 06:54:32;;;;;;;2.60;2.45;;;10.40;99.90;;;;;;4193341;28;20032;-48
2022/04/23 06:56:34;;;;;;;2.55;2.38;;;10.40;99.90;;;;;;4192943;28;20132;-47
2022/04/23 06:58:36;;;;;;;2.65;2.63;;;10.40;99.90;;;;;;4191882;28;20079;-48
2022/04/23 07:00:41;;;;;;;2.92;2.83;;;10.60;99.90;;;;;;4192669;28;20071;-48
2022/04/23 07:02:43;;;;;;;2.33;2.33;;;10.60;99.90;;;;;;4193488;28;20040;-48
2022/04/23 07:04:46;;;;;;;2.72;2.63;;;10.60;99.90;;;;;;4193316;28;20101;-49
2022/04/23 07:06:48;;;;;;;4.65;2.78;;;10.60;99.90;;;;;;4193419;28;20036;-47
2022/04/23 07:08:51;;;;;;;2.50;2.30;;;10.60;99.90;;;;;;4223508;28;20040;-51
2022/04/23 07:10:53;;;;;;;2.85;2.65;;;10.80;99.90;;;;;;4192802;28;20554;-48
2022/04/23 07:12:56;;;;;;;2.67;2.13;;;11.20;99.90;;;;;;4195176;28;20044;-47
2022/04/23 07:15:00;;;;;;;3.20;3.10;;;11.40;99.90;;;;;;4193069;28;20524;-48
2022/04/23 07:17:03;;;;;;;2.67;2.58;;;11.60;99.90;;;;;;4192763;28;20066;-49
2022/04/23 07:19:07;;;;;;;3.05;2.88;;;11.90;99.90;;;;;;4209418;28;20036;-50
2022/04/23 07:21:09;;;;;;;1.38;1.38;;;12.00;99.90;;;;;;4192826;28;20106;-49
2022/04/23 07:25:36;;;;;;;1.65;1.58;;;11.60;99.90;;;;;;4206408;28;20400;-51
2022/04/23 07:27:38;;;;;;;2.50;2.40;;;11.60;99.90;;;;;;4192783;28;20047;-50
2022/04/23 07:29:40;;;;;;;2.47;1.55;;;11.80;99.90;;;;;;4192727;28;20117;-48
2022/04/23 07:31:43;;;;;;;1.20;1.20;;;12.10;99.90;;;;;;4193347;28;20549;-48
2022/04/23 07:38:27;;;;;;;1.40;1.40;;;12.20;99.90;;;;;;4208306;28;20066;-49
2022/04/23 07:40:29;;;;;;;1.20;1.20;;;12.60;99.90;;;;;;4194796;28;20036;-47
2022/04/23 07:42:33;;;;;;;2.17;2.05;;;12.60;99.90;;;;;;4192944;28;20252;-49
2022/04/23 07:44:36;;;;;;;2.28;1.10;;;12.30;99.90;;;;;;4198825;28;20094;-47
2022/04/23 07:46:39;;;;;;;1.50;1.50;;;12.30;99.90;;;;;;4193174;28;20032;-47
2022/04/23 07:48:41;;;;;;;;;;;12.00;99.90;;;;;;4194015;28;20113;-48
2022/04/23 07:50:43;;;;;;;1.73;1.70;;;12.20;99.90;;;;;;4209802;28;19920;-48
2022/04/23 07:52:45;;;;;;;2.15;2.15;;;12.20;99.90;;;;;;4192900;28;20045;-50
2022/04/23 07:54:48;;;;;;;1.88;1.77;;;12.30;99.90;;;;;;4191934;28;20044;-48
2022/04/23 07:56:50;;;;;;;1.67;1.67;;;12.20;99.90;;;;;;4191555;28;20044;-50
2022/04/23 07:58:53;;;;;;;1.50;1.50;;;12.20;99.90;;;;;;4194801;28;20067;-50
2022/04/23 08:00:55;;;;;;;2.88;2.25;;;12.30;99.90;;;;;;4196242;28;20056;-49
2022/04/23 08:02:57;;;;;;;3.55;2.05;;;12.10;99.90;;;;;;4196337;28;20125;-48
2022/04/23 08:05:00;;;;;;;2.78;2.17;;;12.10;99.90;;;;;;4196108;28;20048;-48
2022/04/23 08:07:03;;;;;;;1.90;1.80;;;11.90;99.90;;;;;;4195763;28;20097;-47
2022/04/23 08:09:05;;;;;;;;;;;11.80;99.90;;;;;;4222644;28;20040;-47
2022/04/23 08:11:07;;;;;;;2.35;1.80;;;11.80;99.90;;;;;;4196407;28;19932;-48
2022/04/23 08:13:09;;;;;;;2.38;1.77;;;12.00;99.90;;;;;;4195875;28;20131;-48
2022/04/23 08:15:15;;;;;;;2.60;2.47;;;11.90;99.90;;;;;;4195687;28;20041;-48
2022/04/23 08:17:17;;;;;;;1.33;1.33;;;12.00;99.90;;;;;;4198448;28;20515;-47
2022/04/23 08:19:19;;;;;;;2.17;2.08;;;12.10;99.90;;;;;;4213940;28;20094;-47
2022/04/23 08:21:22;;;;;;;2.05;1.95;;;12.10;99.90;;;;;;4195607;28;20495;-47
2022/04/23 08:23:24;;;;;;;1.30;1.30;;;12.00;99.90;;;;;;4195687;28;20535;-47
2022/04/23 08:25:28;;;;;;;1.75;1.65;;;11.70;99.90;;;;;;4195382;28;20478;-47
2022/04/23 08:27:30;;;;;;;1.58;1.35;;;11.90;99.90;;;;;;4195502;28;20048;-47
2022/04/23 08:31:52;;;;;;;1.67;1.58;;;12.10;99.90;;;;;;4195983;28;20041;-47
2022/04/23 08:34:00;;;;;;;;;;;12.10;99.90;;;;;;4196062;28;20052;-47
2022/04/23 08:36:03;;;;;;;1.50;1.50;;;12.40;99.90;;;;;;4200059;28;19920;-48
2022/04/23 08:38:06;;;;;;;2.25;1.60;;;12.60;99.90;;;;;;4198083;28;20094;-48
2022/04/23 08:40:12;;;;;;;1.92;1.60;;;13.00;99.90;;;;;;4198119;28;20046;-48
2022/04/23 08:42:18;;;;;;;1.40;1.40;;;13.20;99.90;;;;;;4200813;28;20127;-49
2022/04/23 08:44:21;;;;;;;2.38;1.58;;;13.10;99.90;;;;;;4200767;28;20043;-47
2022/04/23 08:46:26;;;;;;;2.85;1.27;;;13.50;99.90;;;;;;4195211;28;20052;-48
2022/04/23 08:48:37;;;;;;;1.40;1.33;;;13.20;99.90;;;;;;4194687;28;20047;-50
2022/04/23 08:50:43;;;;;;;2.28;1.33;;;13.30;99.90;;;;;;4206749;28;20050;-47
2022/04/23 08:52:51;;;;;;;1.10;1.10;;;13.50;99.90;;;;;;4194335;28;20079;-49
2022/04/23 08:54:54;;;;;;;1.17;1.15;;;13.40;99.90;;;;;;4194774;28;20147;-47
2022/04/23 08:56:56;;;;;;;2.08;1.20;;;13.30;99.90;;;;;;4194657;28;20037;-47
2022/04/23 08:59:00;;;;;;;1.25;1.25;;;13.10;99.90;;;;;;4194881;28;20516;-50
2022/04/23 09:01:02;;;;;;;2.15;1.20;;;13.40;99.90;;;;;;4195015;28;20090;-49
2022/04/23 09:03:04;;;;;;;1.02;1.02;;;13.60;99.90;;;;;;4193773;28;20091;-48
2022/04/23 09:05:07;;;;;;;1.88;1.35;;;13.90;99.90;;;;;;4195234;28;20757;-47
2022/04/23 09:07:24;;;;;;;1.20;1.10;;;14.10;99.90;;;;;;4196873;28;20042;-48
2022/04/23 09:09:26;;;;;;;2.58;1.10;;;14.20;99.90;;;;;;4210824;27;20408;-51
2022/04/23 09:11:35;;;;;;;4.68;1.95;;;13.90;99.90;;;;;;4194764;28;20044;-51
2022/04/23 09:13:37;;;;;;;1.10;1.10;;;14.40;99.90;;;;;;4194442;28;20455;-49
2022/04/23 09:24:54;;;;;;;5.57;1.63;;;14.70;99.90;;;;;;4196635;28;20056;-50
2022/04/23 09:27:06;;;;;;;1.00;1.00;;;15.10;99.90;;;;;;4198060;28;20148;-48
2022/04/23 09:29:14;;;;;;;1.30;1.20;;;15.40;99.90;;;;;;4216695;28;20656;-47
2022/04/23 09:31:17;;;;;;;3.00;1.00;;;15.40;99.90;;;;;;4194868;28;20040;-47
2022/04/23 09:33:27;;;;;;;1.00;1.00;;;15.30;99.90;;;;;;4194542;28;20051;-48
2022/04/23 09:35:33;;;;;;;1.20;1.20;;;14.70;99.90;;;;;;4200554;28;20075;-48
2022/04/23 09:39:56;;;;;;;3.33;1.05;;;14.80;99.90;;;;;;4194251;28;20032;-48
2022/04/23 09:42:15;;;;;;;0.90;0.90;;;15.40;99.90;;;;;;4192262;28;20105;-50
2022/04/23 09:44:32;;;;;;;1.08;1.00;;;15.60;99.90;;;;;;4197625;28;20037;-51
2022/04/23 09:46:47;;;;;;;0.82;0.82;;;15.20;99.90;;;;;;4195661;28;20045;-48
2022/04/23 09:49:07;;;;;;;2.92;1.05;;;15.30;99.90;;;;;;4199912;28;20062;-46
2022/04/23 09:51:26;;;;;;;1.85;1.55;;;15.60;99.90;;;;;;4209039;28;20540;-48
2022/04/23 09:53:29;;;;;;;0.90;0.90;;;15.50;99.90;;;;;;4193296;28;20048;-47
2022/04/23 09:55:31;;;;;;;0.90;0.90;;;15.70;99.90;;;;;;4202684;28;20033;-48
2022/04/23 09:57:34;;;;;;;;;;;15.90;99.90;;;;;;4205179;28;20562;-48
2022/04/23 09:59:36;;;;;;;1.40;1.20;;;16.20;99.90;;;;;;4193933;28;19924;-49
2022/04/23 10:01:39;;;;;;;1.48;1.00;;;16.20;99.90;;;;;;4198391;28;20733;-50
2022/04/23 10:03:44;;;;;;;;;;;15.70;99.90;;;;;;4199614;28;20028;-50
2022/04/23 10:05:49;;;;;;;1.10;1.00;;;15.50;99.90;;;;;;4206550;28;20299;-48
2022/04/23 10:07:58;;;;;;;1.65;0.80;;;15.90;99.90;;;;;;4202451;28;20047;-50
2022/04/23 10:10:03;;;;;;;4.35;1.05;;;16.10;99.90;;;;;;4192126;28;20120;-48
2022/04/23 10:12:08;;;;;;;1.00;1.00;;;16.40;99.90;;;;;;4199789;28;20048;-47
2022/04/23 10:14:13;;;;;;;0.90;0.90;;;15.90;99.90;;;;;;4194094;28;20036;-48
2022/04/23 10:16:16;;;;;;;1.15;0.88;;;15.90;99.90;;;;;;4200158;28;20044;-50
2022/04/23 10:18:18;;;;;;;1.30;0.90;;;15.80;99.90;;;;;;4209998;28;20093;-47
2022/04/23 10:20:22;;;;;;;0.90;0.90;;;15.80;99.90;;;;;;4205350;28;20040;-48
2022/04/23 10:22:47;;;;;;;0.93;0.90;;;16.00;99.90;;;;;;4193730;28;20039;-49
2022/04/23 10:24:55;;;;;;;3.47;0.90;;;15.90;99.90;;;;;;4195444;28;20442;-49
2022/04/23 10:27:07;;;;;;;0.90;0.90;;;16.30;99.90;;;;;;4201069;28;20491;-50
2022/04/23 10:29:15;;;;;;;0.88;0.88;;;16.70;99.90;;;;;;4199260;28;20056;-47
2022/04/23 10:31:18;;;;;;;1.02;1.00;;;16.30;99.90;;;;;;4202849;28;20036;-47
2022/04/23 10:33:28;;;;;;;0.95;0.95;;;16.70;99.90;;;;;;4198819;28;20036;-48
2022/04/23 10:35:30;;;;;;;1.48;0.90;;;17.30;99.90;;;;;;4199623;28;20102;-48
2022/04/23 10:37:40;;;;;;;0.80;0.80;;;17.00;99.90;;;;;;4200253;28;20028;-49
2022/04/23 10:39:44;;;;;;;2.42;0.90;;;17.20;99.90;;;;;;4204215;28;20038;-47
2022/04/23 10:41:46;;;;;;;0.80;0.80;;;17.10;99.90;;;;;;4197696;28;20036;-51
2022/04/23 10:43:57;;;;;;;;;;;17.20;99.90;;;;;;4206844;28;20036;-49
2022/04/23 10:46:00;;;;;;;1.50;0.80;;;17.40;99.90;;;;;;4193844;28;19924;-48
2022/04/23 10:48:33;;;;;;;0.80;0.80;;;17.30;99.90;;;;;;4193252;28;20037;-47
2022/04/23 10:50:35;;;;;;;0.90;0.90;;;17.60;99.90;;;;;;4190861;28;20060;-48
2022/04/23 10:52:38;;;;;;;0.80;0.80;;;17.70;99.90;;;;;;4174694;28;20052;-49
2022/04/23 10:54:40;;;;;;;4.97;0.90;;;17.10;99.90;;;;;;4179937;28;20045;-49
2022/04/23 10:56:43;;;;;;;0.80;0.80;;;17.20;99.90;;;;;;4174208;28;20041;-50
2022/04/23 10:58:46;;;;;;;1.95;0.85;;;17.40;99.90;;;;;;4169722;28;20106;-49
2022/04/23 11:00:48;;;;;;;0.80;0.80;;;17.50;99.90;;;;;;4173103;28;20500;-47
2022/04/23 11:03:05;;;;;;;1.15;0.80;;;17.70;99.90;;;;;;4183731;28;21071;-50
2022/04/23 11:12:33;;;;;;;1.48;0.80;;;17.50;99.90;;;;;;4174142;28;20436;-49
2022/04/23 11:14:44;;;;;;;0.90;0.90;;;17.10;99.90;;;;;;4181164;28;20596;-48
2022/04/23 11:16:54;;;;;;;1.23;1.23;;;16.70;99.90;;;;;;4174085;28;20045;-48
2022/04/23 11:18:59;;;;;;;0.90;0.90;;;16.80;99.90;;;;;;4183603;28;20048;-50
2022/04/23 11:21:12;;;;;;;1.00;1.00;;;16.80;99.90;;;;;;4175492;28;20289;-51
2022/04/23 11:23:17;;;;;;;0.90;0.90;;;16.80;99.90;;;;;;4159102;28;20523;-50
2022/04/23 11:25:19;;;;;;;1.38;0.90;;;17.00;99.90;;;;;;4177582;28;20063;-48